createdAt,value
2019-05-06T00:00:58.921Z,45.40
2019-05-06T00:03:24.834Z,45.50
2019-05-06T00:05:55.393Z,45.40
2019-05-06T00:08:24.584Z,45.70
2019-05-06T00:10:54.290Z,45.90
2019-05-06T00:13:24.237Z,45.90
2019-05-06T00:15:54.334Z,46.00
2019-05-06T00:18:24.512Z,46.10
2019-05-06T00:20:57.183Z,46.40
2019-05-06T00:23:32.375Z,46.50
2019-05-06T00:26:13.684Z,46.50
2019-05-06T00:28:46.374Z,46.50
2019-05-06T00:31:17.247Z,46.60
2019-05-06T00:33:46.274Z,47.00
2019-05-06T00:36:15.297Z,47.30
2019-05-06T00:38:46.257Z,47.20
2019-05-06T00:41:20.653Z,47.30
2019-05-06T00:43:49.515Z,47.20
2019-05-06T00:46:18.468Z,47.50
2019-05-06T00:48:47.506Z,47.00
2019-05-06T00:51:16.412Z,46.70
2019-05-06T00:53:49.382Z,46.90
2019-05-06T00:56:18.212Z,46.60
2019-05-06T00:58:47.058Z,46.60
2019-05-06T01:01:25.950Z,46.30
2019-05-06T01:03:46.589Z,46.40
2019-05-06T01:06:15.571Z,46.60
2019-05-06T01:08:44.558Z,46.50
2019-05-06T01:11:14.473Z,46.40
2019-05-06T01:14:04.039Z,46.80
2019-05-06T01:16:34.559Z,46.40
2019-05-06T01:19:04.851Z,46.30
2019-05-06T01:21:34.411Z,46.30
2019-05-06T01:24:03.998Z,46.30
2019-05-06T01:26:33.781Z,46.30
2019-05-06T01:29:03.930Z,46.40
2019-05-06T01:31:42.202Z,46.30
2019-05-06T01:34:04.387Z,46.50
2019-05-06T01:36:34.362Z,46.20
2019-05-06T01:39:22.088Z,46.30
2019-05-06T01:42:10.014Z,46.60
2019-05-06T01:44:38.866Z,45.70
2019-05-06T01:47:07.734Z,45.50
2019-05-06T01:49:36.705Z,45.80
2019-05-06T01:52:05.814Z,45.30
2019-05-06T01:54:34.815Z,45.40
2019-05-06T01:57:04.432Z,45.30
2019-05-06T01:59:34.201Z,45.10
2019-05-06T02:02:04.346Z,45.20
2019-05-06T02:04:33.893Z,44.80
2019-05-06T02:07:03.757Z,44.50
2019-05-06T02:09:34.202Z,44.50
2019-05-06T02:12:04.528Z,45.00
2019-05-06T02:14:34.320Z,43.90
2019-05-06T02:17:03.689Z,44.80
2019-05-06T02:19:34.708Z,44.40
2019-05-06T02:22:24.120Z,44.00
2019-05-06T02:24:59.934Z,44.20
2019-05-06T02:27:28.919Z,44.40
2019-05-06T02:30:05.438Z,43.80
2019-05-06T02:32:41.918Z,43.70
2019-05-06T02:35:26.185Z,43.30
2019-05-06T02:37:55.063Z,43.70
2019-05-06T02:40:26.219Z,43.10
2019-05-06T02:42:55.497Z,43.10
2019-05-06T02:45:24.915Z,43.00
2019-05-06T02:48:15.965Z,42.80
2019-05-06T02:51:03.733Z,42.80
2019-05-06T02:53:33.627Z,42.70
2019-05-06T02:56:04.004Z,43.40
2019-05-06T02:58:33.610Z,42.90
2019-05-06T03:01:03.468Z,43.10
2019-05-06T03:03:33.705Z,43.00
2019-05-06T03:06:03.948Z,42.90
2019-05-06T03:08:33.380Z,42.30
2019-05-06T03:11:03.921Z,42.80
2019-05-06T03:13:34.163Z,42.90
2019-05-06T03:16:05.742Z,42.70
2019-05-06T03:18:34.206Z,42.60
2019-05-06T03:21:20.770Z,42.60
2019-05-06T03:23:55.686Z,42.30
2019-05-06T03:26:24.658Z,42.30
2019-05-06T03:28:53.770Z,42.40
2019-05-06T03:31:26.046Z,42.40
2019-05-06T03:34:16.144Z,42.30
2019-05-06T03:36:31.414Z,42.60
2019-05-06T03:38:54.871Z,42.50
2019-05-06T03:41:26.680Z,42.80
2019-05-06T03:43:54.666Z,43.10
2019-05-06T03:46:34.308Z,42.80
2019-05-06T03:49:05.468Z,43.20
2019-05-06T03:51:34.641Z,43.10
2019-05-06T03:54:04.846Z,43.20
2019-05-06T03:56:34.238Z,43.30
2019-05-06T03:59:04.462Z,43.70
2019-05-06T04:01:33.719Z,43.70
2019-05-06T04:04:03.838Z,43.60
2019-05-06T04:06:33.505Z,43.50
2019-05-06T04:09:03.910Z,44.00
2019-05-06T04:11:36.230Z,43.80
2019-05-06T04:14:06.386Z,44.00
2019-05-06T04:17:03.201Z,44.10
2019-05-06T04:19:54.747Z,43.90
2019-05-06T04:22:35.974Z,44.10
2019-05-06T04:25:16.761Z,44.60
2019-05-06T04:27:55.048Z,44.30
2019-05-06T04:30:24.516Z,44.30
2019-05-06T04:32:53.847Z,44.80
2019-05-06T04:35:23.119Z,45.00
2019-05-06T04:37:53.819Z,45.10
2019-05-06T04:40:23.781Z,45.80
2019-05-06T04:42:53.210Z,45.40
2019-05-06T04:45:23.549Z,45.40
2019-05-06T04:47:53.687Z,45.50
2019-05-06T04:50:24.231Z,45.50
2019-05-06T04:53:04.541Z,45.60
2019-05-06T04:55:36.816Z,45.40
2019-05-06T04:58:06.079Z,45.40
2019-05-06T05:00:36.141Z,45.40
2019-05-06T05:03:05.353Z,45.40
2019-05-06T05:05:34.515Z,45.80
2019-05-06T05:08:03.580Z,45.70
2019-05-06T05:10:53.065Z,45.80
2019-05-06T05:13:32.744Z,45.90
2019-05-06T05:16:25.511Z,46.00
2019-05-06T05:19:03.762Z,45.70
2019-05-06T05:21:32.802Z,45.90
2019-05-06T05:24:02.142Z,45.80
2019-05-06T05:26:32.206Z,46.20
2019-05-06T05:29:02.839Z,46.20
2019-05-06T05:31:33.180Z,46.30
2019-05-06T05:34:02.670Z,46.30
2019-05-06T05:36:32.854Z,46.10
2019-05-06T05:39:03.397Z,46.10
2019-05-06T05:41:33.388Z,46.20
2019-05-06T05:44:14.311Z,46.30
2019-05-06T05:46:43.875Z,46.20
2019-05-06T05:49:24.722Z,46.30
2019-05-06T05:51:53.833Z,46.20
2019-05-06T05:54:23.221Z,46.40
2019-05-06T05:56:53.020Z,46.40
2019-05-06T05:59:23.156Z,46.10
2019-05-06T06:01:53.225Z,46.30
2019-05-06T06:04:22.682Z,46.30
2019-05-06T06:06:52.092Z,46.00
2019-05-06T06:09:23.923Z,45.90
2019-05-06T06:11:54.758Z,45.80
2019-05-06T06:14:48.669Z,45.70
2019-05-06T06:17:55.177Z,45.80
2019-05-06T06:20:42.404Z,45.80
2019-05-06T06:23:18.481Z,45.90
2019-05-06T06:25:47.763Z,46.00
2019-05-06T06:28:16.770Z,46.00
2019-05-06T06:30:52.342Z,45.80
2019-05-06T06:33:22.324Z,46.00
2019-05-06T06:36:04.151Z,46.60
2019-05-06T06:38:55.047Z,46.20
2019-05-06T06:41:24.154Z,46.30
2019-05-06T06:43:56.593Z,46.40
2019-05-06T06:46:25.567Z,46.30
2019-05-06T06:48:54.630Z,46.60
2019-05-06T06:51:23.660Z,46.80
2019-05-06T06:53:52.940Z,46.80
2019-05-06T06:56:44.547Z,47.00
2019-05-06T06:59:24.928Z,47.00
2019-05-06T07:02:13.795Z,46.90
2019-05-06T07:04:48.694Z,46.90
2019-05-06T07:07:18.664Z,46.60
2019-05-06T07:09:47.505Z,46.40
2019-05-06T07:12:16.412Z,46.60
2019-05-06T07:14:45.254Z,46.50
2019-05-06T07:17:14.222Z,46.60
2019-05-06T07:19:48.467Z,46.50
2019-05-06T07:22:17.386Z,46.40
2019-05-06T07:24:46.294Z,46.40
2019-05-06T07:27:19.429Z,46.40
2019-05-06T07:29:48.809Z,46.60
2019-05-06T07:32:17.946Z,46.30
2019-05-06T07:34:46.814Z,46.20
2019-05-06T07:37:15.711Z,45.90
2019-05-06T07:39:45.281Z,45.90
2019-05-06T07:42:19.890Z,45.70
2019-05-06T07:45:06.579Z,46.00
2019-05-06T07:47:49.015Z,45.80
2019-05-06T07:50:17.999Z,45.60
2019-05-06T07:53:04.774Z,45.40
2019-05-06T07:55:33.779Z,45.40
2019-05-06T07:58:03.037Z,45.40
2019-05-06T08:00:32.890Z,45.50
2019-05-06T08:03:02.680Z,45.60
2019-05-06T08:05:32.578Z,45.70
2019-05-06T08:08:03.563Z,45.70
2019-05-06T08:10:33.292Z,45.70
2019-05-06T08:13:02.893Z,45.60
2019-05-06T08:15:32.911Z,45.40
2019-05-06T08:18:03.511Z,45.10
2019-05-06T08:20:39.084Z,45.10
2019-05-06T08:23:23.809Z,45.00
2019-05-06T08:26:08.302Z,44.60
2019-05-06T08:28:37.483Z,43.80
2019-05-06T08:30:54.622Z,43.40
2019-05-06T08:33:23.755Z,43.30
2019-05-06T08:35:53.340Z,43.20
2019-05-06T08:38:23.465Z,43.20
2019-05-06T08:40:52.689Z,43.00
2019-05-06T08:43:21.948Z,43.20
2019-05-06T08:45:52.880Z,43.20
2019-05-06T08:48:22.209Z,43.10
2019-05-06T08:51:05.103Z,43.00
2019-05-06T08:53:38.303Z,43.20
2019-05-06T08:56:09.019Z,43.30
2019-05-06T08:58:48.246Z,43.40
2019-05-06T09:01:28.271Z,43.70
2019-05-06T09:04:08.704Z,43.80
2019-05-06T09:06:33.039Z,44.00
2019-05-06T09:08:58.681Z,44.00
2019-05-06T09:11:28.174Z,44.20
2019-05-06T09:13:57.103Z,44.50
2019-05-06T09:16:26.040Z,44.60
2019-05-06T09:18:54.999Z,44.90
2019-05-06T09:21:24.013Z,44.90
2019-05-06T09:23:53.311Z,45.10
2019-05-06T09:26:26.957Z,45.20
2019-05-06T09:29:12.711Z,45.20
2019-05-06T09:31:47.185Z,45.50
2019-05-06T09:34:23.412Z,45.60
2019-05-06T09:37:13.482Z,45.70
2019-05-06T09:39:44.705Z,45.80
2019-05-06T09:42:14.718Z,45.70
2019-05-06T09:44:44.785Z,45.30
2019-05-06T09:47:22.808Z,45.40
2019-05-06T09:49:53.152Z,45.50
2019-05-06T09:52:23.126Z,45.30
2019-05-06T09:55:12.849Z,44.60
2019-05-06T09:58:03.425Z,44.30
2019-05-06T10:00:35.110Z,44.10
2019-05-06T10:03:04.327Z,44.10
2019-05-06T10:05:33.345Z,44.30
2019-05-06T10:08:03.280Z,44.60
2019-05-06T10:10:32.923Z,45.30
2019-05-06T10:13:02.711Z,45.10
2019-05-06T10:15:32.711Z,45.20
2019-05-06T10:18:07.937Z,45.50
2019-05-06T10:20:46.698Z,45.40
2019-05-06T10:23:16.131Z,45.40
2019-05-06T10:25:45.150Z,45.30
2019-05-06T10:28:33.241Z,45.10
2019-05-06T10:31:02.132Z,45.30
2019-05-06T10:33:32.483Z,45.00
2019-05-06T10:36:04.849Z,45.00
2019-05-06T10:38:56.420Z,45.40
2019-05-06T10:41:30.093Z,45.60
2019-05-06T10:44:27.935Z,45.60
2019-05-06T10:46:57.004Z,45.70
2019-05-06T10:49:25.967Z,45.70
2019-05-06T10:52:04.399Z,45.40
2019-05-06T10:54:33.346Z,44.90
2019-05-06T10:57:27.421Z,44.70
2019-05-06T10:59:56.286Z,43.80
2019-05-06T11:02:59.385Z,43.60
2019-05-06T11:05:28.394Z,42.50
2019-05-06T11:07:57.263Z,42.70
2019-05-06T11:10:32.135Z,42.50
2019-05-06T11:12:56.911Z,42.40
2019-05-06T11:15:25.938Z,42.40
2019-05-06T11:17:54.885Z,42.20
2019-05-06T11:20:24.240Z,42.20
2019-05-06T11:22:53.615Z,42.00
2019-05-06T11:25:23.106Z,41.90
2019-05-06T11:27:52.657Z,42.10
2019-05-06T11:30:42.500Z,42.00
2019-05-06T11:33:45.945Z,42.10
2019-05-06T11:36:28.002Z,41.80
2019-05-06T11:38:56.854Z,41.80
2019-05-06T11:41:25.730Z,41.70
2019-05-06T11:43:54.729Z,41.70
2019-05-06T11:46:23.714Z,42.10
2019-05-06T11:48:52.689Z,42.20
2019-05-06T11:51:23.385Z,42.10
2019-05-06T11:53:54.181Z,42.40
2019-05-06T11:56:23.126Z,42.60
2019-05-06T11:58:54.329Z,42.50
2019-05-06T12:01:26.899Z,42.50
2019-05-06T12:03:55.883Z,42.40
2019-05-06T12:06:24.865Z,42.10
2019-05-06T12:08:53.685Z,41.70
2019-05-06T12:11:23.696Z,42.00
2019-05-06T12:13:53.436Z,42.00
2019-05-06T12:16:26.218Z,41.90
2019-05-06T12:18:53.438Z,41.90
2019-05-06T12:21:23.225Z,41.80
2019-05-06T12:23:53.857Z,41.60
2019-05-06T12:26:23.028Z,41.70
2019-05-06T12:28:53.176Z,41.40
2019-05-06T12:31:23.351Z,41.60
2019-05-06T12:33:53.488Z,41.80
2019-05-06T12:36:23.609Z,41.50
2019-05-06T12:39:15.894Z,41.40
2019-05-06T12:41:57.851Z,41.40
2019-05-06T12:44:26.750Z,41.40
2019-05-06T12:47:13.426Z,41.30
2019-05-06T12:49:42.851Z,41.10
2019-05-06T12:52:12.331Z,41.10
2019-05-06T12:54:42.981Z,41.10
2019-05-06T12:57:12.629Z,41.40
2019-05-06T12:59:42.612Z,41.40
2019-05-06T13:02:13.238Z,41.30
2019-05-06T13:04:51.350Z,41.10
2019-05-06T13:07:17.955Z,41.00
2019-05-06T13:09:46.840Z,41.10
2019-05-06T13:12:18.669Z,41.20
2019-05-06T13:14:47.609Z,40.90
2019-05-06T13:17:18.951Z,41.20
2019-05-06T13:19:47.941Z,41.00
2019-05-06T13:22:24.543Z,41.10
2019-05-06T13:24:52.142Z,41.00
2019-05-06T13:27:23.641Z,41.20
2019-05-06T13:29:52.800Z,40.90
2019-05-06T13:32:23.653Z,41.10
2019-05-06T13:34:52.731Z,41.10
2019-05-06T13:37:22.879Z,41.60
2019-05-06T13:39:52.888Z,41.70
2019-05-06T13:42:24.474Z,41.20
2019-05-06T13:44:53.509Z,41.00
2019-05-06T13:47:41.599Z,41.40
2019-05-06T13:50:12.282Z,41.00
2019-05-06T13:52:43.558Z,41.20
2019-05-06T13:55:12.994Z,41.20
2019-05-06T13:57:42.915Z,40.80
2019-05-06T14:00:13.547Z,40.90
2019-05-06T14:02:56.159Z,40.80
2019-05-06T14:05:25.210Z,41.00
2019-05-06T14:07:54.120Z,41.00
2019-05-06T14:10:23.114Z,41.00
2019-05-06T14:12:53.228Z,41.10
2019-05-06T14:15:23.359Z,40.90
2019-05-06T14:17:53.381Z,40.90
2019-05-06T14:20:22.870Z,40.90
2019-05-06T14:22:52.722Z,40.30
2019-05-06T14:25:40.324Z,40.80
2019-05-06T14:28:27.142Z,40.40
2019-05-06T14:31:05.792Z,40.50
2019-05-06T14:33:34.644Z,40.60
2019-05-06T14:36:03.595Z,40.30
2019-05-06T14:38:33.004Z,40.30
2019-05-06T14:41:08.512Z,40.30
2019-05-06T14:43:38.078Z,40.60
2019-05-06T14:46:07.077Z,40.10
2019-05-06T14:48:36.054Z,40.00
2019-05-06T14:51:05.050Z,40.40
2019-05-06T14:53:34.069Z,40.10
2019-05-06T14:56:09.563Z,40.10
2019-05-06T14:58:38.395Z,40.20
2019-05-06T15:01:07.455Z,40.40
2019-05-06T15:03:36.351Z,40.20
2019-05-06T15:06:05.328Z,40.30
2019-05-06T15:08:34.487Z,40.30
2019-05-06T15:11:03.506Z,40.40
2019-05-06T15:13:32.506Z,40.60
2019-05-06T15:16:03.462Z,40.70
2019-05-06T15:18:32.208Z,40.40
2019-05-06T15:21:29.246Z,40.70
2019-05-06T15:23:32.140Z,40.60
2019-05-06T15:26:02.989Z,40.30
2019-05-06T15:28:33.586Z,40.70
2019-05-06T15:31:12.474Z,40.70
2019-05-06T15:33:44.735Z,40.70
2019-05-06T15:36:22.447Z,40.70
2019-05-06T15:38:52.751Z,40.80
2019-05-06T15:41:22.386Z,40.70
2019-05-06T15:43:51.303Z,41.00
2019-05-06T15:46:20.288Z,40.90
2019-05-06T15:48:49.194Z,40.90
2019-05-06T15:51:22.280Z,40.90
2019-05-06T15:53:52.931Z,40.90
2019-05-06T15:56:23.083Z,40.60
2019-05-06T15:58:52.070Z,40.80
2019-05-06T16:01:23.365Z,40.90
2019-05-06T16:03:53.343Z,40.70
2019-05-06T16:06:23.002Z,40.50
2019-05-06T16:08:52.704Z,40.80
2019-05-06T16:11:22.359Z,40.80
2019-05-06T16:13:53.405Z,40.70
2019-05-06T16:16:22.784Z,40.90
2019-05-06T16:18:52.029Z,40.40
2019-05-06T16:21:23.024Z,40.60
2019-05-06T16:23:57.136Z,40.50
2019-05-06T16:26:25.963Z,40.60
2019-05-06T16:28:54.885Z,40.80
2019-05-06T16:31:24.765Z,40.60
2019-05-06T16:33:53.723Z,40.70
2019-05-06T16:36:22.917Z,40.60
2019-05-06T16:38:54.633Z,40.70
2019-05-06T16:41:22.963Z,40.60
2019-05-06T16:43:52.353Z,40.80
2019-05-06T16:46:23.048Z,40.90
2019-05-06T16:48:52.615Z,41.10
2019-05-06T16:51:22.357Z,41.00
2019-05-06T16:53:52.490Z,41.00
2019-05-06T16:56:27.943Z,41.00
2019-05-06T16:58:59.470Z,41.10
2019-05-06T17:01:28.377Z,40.80
2019-05-06T17:04:23.215Z,41.50
2019-05-06T17:06:52.570Z,41.00
2019-05-06T17:09:27.009Z,40.90
2019-05-06T17:11:52.649Z,40.50
2019-05-06T17:14:21.670Z,41.00
2019-05-06T17:16:52.733Z,40.60
2019-05-06T17:19:22.985Z,40.70
2019-05-06T17:21:52.473Z,40.50
2019-05-06T17:24:22.008Z,40.30
2019-05-06T17:26:55.674Z,40.50
2019-05-06T17:29:42.921Z,40.50
2019-05-06T17:32:33.334Z,40.40
2019-05-06T17:35:02.686Z,40.60
2019-05-06T17:37:49.765Z,40.50
2019-05-06T17:40:19.510Z,40.50
2019-05-06T17:42:48.519Z,40.60
2019-05-06T17:45:36.971Z,40.70
2019-05-06T17:48:27.699Z,40.40
2019-05-06T17:51:13.917Z,40.60
2019-05-06T17:53:46.372Z,40.60
2019-05-06T17:56:15.428Z,40.50
2019-05-06T17:58:44.455Z,40.70
2019-05-06T18:01:14.884Z,40.90
2019-05-06T18:03:43.837Z,40.80
2019-05-06T18:06:14.165Z,41.00
2019-05-06T18:08:43.478Z,41.10
2019-05-06T18:11:13.063Z,41.20
2019-05-06T18:13:42.479Z,41.30
2019-05-06T18:16:13.185Z,41.50
2019-05-06T18:18:42.231Z,41.50
2019-05-06T18:21:12.281Z,41.70
2019-05-06T18:23:41.798Z,41.50
2019-05-06T18:26:10.758Z,41.60
2019-05-06T18:28:39.703Z,41.80
2019-05-06T18:31:08.701Z,41.80
2019-05-06T18:33:37.691Z,41.90
2019-05-06T18:36:06.683Z,42.20
2019-05-06T18:38:35.497Z,42.10
2019-05-06T18:41:04.535Z,42.10
2019-05-06T18:43:33.657Z,42.40
2019-05-06T18:46:02.970Z,43.20
2019-05-06T18:48:35.052Z,43.10
2019-05-06T18:51:03.220Z,43.00
2019-05-06T18:53:33.242Z,43.00
2019-05-06T18:56:03.137Z,43.20
2019-05-06T18:58:33.029Z,43.10
2019-05-06T19:01:04.014Z,43.40
2019-05-06T19:03:40.547Z,43.40
2019-05-06T19:06:09.449Z,43.90
2019-05-06T19:08:43.953Z,43.80
2019-05-06T19:11:13.853Z,43.90
2019-05-06T19:13:42.859Z,44.10
2019-05-06T19:16:12.774Z,44.50
2019-05-06T19:18:42.613Z,44.40
2019-05-06T19:21:13.436Z,44.70
2019-05-06T19:23:42.835Z,44.90
2019-05-06T19:26:12.365Z,45.20
2019-05-06T19:28:43.038Z,45.20
2019-05-06T19:31:12.458Z,45.80
2019-05-06T19:33:43.056Z,46.00
2019-05-06T19:36:12.718Z,46.20
2019-05-06T19:38:42.482Z,46.50
2019-05-06T19:41:12.873Z,46.00
2019-05-06T19:43:41.883Z,45.90
2019-05-06T19:46:12.104Z,45.80
2019-05-06T19:48:43.203Z,46.80
2019-05-06T19:51:11.963Z,46.20
2019-05-06T19:53:42.806Z,46.30
2019-05-06T19:56:12.342Z,46.20
2019-05-06T19:58:42.924Z,46.20
2019-05-06T20:01:12.047Z,46.40
2019-05-06T20:03:40.995Z,46.50
2019-05-06T20:06:34.798Z,46.60
2019-05-06T20:09:22.314Z,46.80
2019-05-06T20:11:53.110Z,47.10
2019-05-06T20:14:22.109Z,47.20
2019-05-06T20:16:52.857Z,47.10
2019-05-06T20:19:30.841Z,47.10
2019-05-06T20:21:52.807Z,47.20
2019-05-06T20:24:22.550Z,47.30
2019-05-06T20:26:52.680Z,47.50
2019-05-06T20:29:22.542Z,47.80
2019-05-06T20:31:53.475Z,48.00
2019-05-06T20:34:22.536Z,48.20
2019-05-06T20:36:52.823Z,48.20
2019-05-06T20:39:22.962Z,48.20
2019-05-06T20:41:52.279Z,49.00
2019-05-06T20:44:23.063Z,48.60
2019-05-06T20:46:52.750Z,48.70
2019-05-06T20:49:21.959Z,48.50
2019-05-06T20:51:52.143Z,48.70
2019-05-06T20:54:23.549Z,48.60
2019-05-06T20:56:53.104Z,48.60
2019-05-06T20:59:22.948Z,48.90
2019-05-06T21:01:52.050Z,49.10
2019-05-06T21:04:22.843Z,49.00
2019-05-06T21:06:51.457Z,49.30
2019-05-06T21:09:20.306Z,49.30
2019-05-06T21:11:49.252Z,50.00
2019-05-06T21:14:18.151Z,49.40
2019-05-06T21:16:48.266Z,49.40
2019-05-06T21:19:17.440Z,49.60
2019-05-06T21:21:46.269Z,49.70
2019-05-06T21:24:15.206Z,49.70
2019-05-06T21:26:46.431Z,50.10
2019-05-06T21:29:14.689Z,50.20
2019-05-06T21:31:43.559Z,50.50
2019-05-06T21:34:12.956Z,50.30
2019-05-06T21:36:42.369Z,50.40
2019-05-06T21:39:13.003Z,50.40
2019-05-06T21:41:42.817Z,50.40
2019-05-06T21:44:13.241Z,50.40
2019-05-06T21:46:43.031Z,50.60
2019-05-06T21:49:12.395Z,50.60
2019-05-06T21:51:42.508Z,50.70
2019-05-06T21:54:12.642Z,50.80
2019-05-06T21:56:42.468Z,50.90
2019-05-06T21:59:12.885Z,51.00
2019-05-06T22:01:42.924Z,51.10
2019-05-06T22:04:12.934Z,51.30
2019-05-06T22:06:42.740Z,51.40
2019-05-06T22:09:13.432Z,51.40
2019-05-06T22:11:42.571Z,51.40
2019-05-06T22:14:12.232Z,51.50
2019-05-06T22:16:43.672Z,52.10
2019-05-06T22:19:12.334Z,51.70
2019-05-06T22:21:57.797Z,51.80
2019-05-06T22:24:33.048Z,51.80
2019-05-06T22:27:02.853Z,51.90
2019-05-06T22:29:33.042Z,52.00
2019-05-06T22:32:02.865Z,51.90
2019-05-06T22:34:32.968Z,52.10
2019-05-06T22:37:03.390Z,52.00
2019-05-06T22:39:34.284Z,52.00
2019-05-06T22:42:03.308Z,52.00
2019-05-06T22:44:32.494Z,52.00
2019-05-06T22:47:02.753Z,51.90
2019-05-06T22:49:32.162Z,51.80
2019-05-06T22:52:02.936Z,51.90
2019-05-06T22:54:32.125Z,51.80
2019-05-06T22:57:02.365Z,51.90
2019-05-06T22:59:33.047Z,51.90
2019-05-06T23:02:32.108Z,51.90
2019-05-06T23:05:04.187Z,52.00
2019-05-06T23:07:33.645Z,51.90
2019-05-06T23:10:02.607Z,52.00
2019-05-06T23:12:32.544Z,51.90
2019-05-06T23:15:02.689Z,51.90
2019-05-06T23:17:34.182Z,52.00
2019-05-06T23:20:02.406Z,52.00
2019-05-06T23:22:32.018Z,52.10
2019-05-06T23:25:02.196Z,52.30
2019-05-06T23:27:31.557Z,52.80
2019-05-06T23:30:00.501Z,52.30
2019-05-06T23:32:29.532Z,52.20
2019-05-06T23:34:58.442Z,52.10
2019-05-06T23:37:26.138Z,52.00
2019-05-06T23:40:34.680Z,52.20
2019-05-06T23:43:39.430Z,52.10
2019-05-06T23:46:44.566Z,52.20
2019-05-06T23:49:49.747Z,52.20
2019-05-06T23:52:54.735Z,52.20
2019-05-06T23:55:59.992Z,52.30
2019-05-06T23:58:32.221Z,52.50
